Time;durP1;ratioP1;P1;durP2;ratioP2;P2;SDS_P1;SDS_P2;PMS_P1;PMS_P2;Temp;Humidity;BMP_temperature;BMP_pressure;BME280_temperature;BME280_humidity;BME280_pressure;Samples;Min_cycle;Max_cycle;Signal;HPM_P1;HPM_P2
2022/11/21 00:05:08;;;;;;;0.28;0.28;;;;;;;;;;10488205;28;20052;-75
2022/11/21 00:10:29;;;;;;;0.35;0.32;;;;;;;;;;10487741;28;20039;-75
2022/11/21 00:15:40;;;;;;;0.50;0.50;;;;;;;;;;10506882;28;20072;-74
2022/11/21 00:20:44;;;;;;;0.40;0.40;;;;;;;;;;10484776;28;20032;-78
2022/11/21 00:25:49;;;;;;;0.95;0.50;;;;;;;;;;10488022;28;20047;-76
2022/11/21 00:30:56;;;;;;;0.50;0.50;;;;;;;;;;10480292;28;20501;-75
2022/11/21 00:36:07;;;;;;;0.50;0.47;;;;;;;;;;10468098;28;20033;-75
2022/11/21 00:41:16;;;;;;;0.68;0.50;;;;;;;;;;10480730;28;20347;-75
2022/11/21 00:46:36;;;;;;;0.38;0.32;;;;;;;;;;10484855;28;20166;-77
2022/11/21 00:51:51;;;;;;;0.20;0.20;;;;;;;;;;10521351;28;20075;-75
2022/11/21 00:56:59;;;;;;;0.63;0.50;;;;;;;;;;10515358;28;20063;-78
2022/11/21 01:02:05;;;;;;;0.98;0.50;;;;;;;;;;10521034;28;20056;-76
2022/11/21 01:07:13;;;;;;;1.08;0.70;;;;;;;;;;10507479;28;20032;-75
2022/11/21 01:12:20;;;;;;;0.38;0.38;;;;;;;;;;10521575;28;20043;-75
2022/11/21 01:17:34;;;;;;;0.47;0.47;;;;;;;;;;10520880;28;20413;-75
2022/11/21 01:22:45;;;;;;;1.40;0.90;;;;;;;;;;10508312;28;20137;-75
2022/11/21 01:27:49;;;;;;;1.27;0.70;;;;;;;;;;10507645;28;20342;-74
2022/11/21 01:32:57;;;;;;;0.70;0.55;;;;;;;;;;10522200;28;20043;-75
2022/11/21 01:38:07;;;;;;;0.80;0.43;;;;;;;;;;10508198;28;20478;-75
2022/11/21 01:43:14;;;;;;;2.13;0.85;;;;;;;;;;10506207;28;20044;-75
2022/11/21 01:48:20;;;;;;;0.70;0.60;;;;;;;;;;10517615;28;20052;-74
2022/11/21 01:53:29;;;;;;;1.48;0.75;;;;;;;;;;10522369;28;20432;-76
2022/11/21 01:58:45;;;;;;;0.40;0.40;;;;;;;;;;10524882;28;20127;-76
2022/11/21 02:09:31;;;;;;;0.55;0.40;;;;;;;;;;10521184;28;20047;-75
2022/11/21 02:14:43;;;;;;;1.35;0.70;;;;;;;;;;10522352;28;20032;-76
2022/11/21 02:19:55;;;;;;;0.70;0.60;;;;;;;;;;10494930;28;20126;-76
2022/11/21 02:25:05;;;;;;;2.05;0.80;;;;;;;;;;10492034;28;20051;-76
2022/11/21 02:30:11;;;;;;;0.98;0.60;;;;;;;;;;10526063;27;20302;-75
2022/11/21 02:35:20;;;;;;;0.47;0.40;;;;;;;;;;10518266;28;20474;-76
2022/11/21 02:40:43;;;;;;;2.17;0.95;;;;;;;;;;10516100;28;20119;-75
2022/11/21 02:46:04;;;;;;;2.75;1.00;;;;;;;;;;10512960;28;20108;-74
2022/11/21 02:51:20;;;;;;;0.82;0.50;;;;;;;;;;10509515;28;20052;-75
2022/11/21 02:56:27;;;;;;;2.85;0.95;;;;;;;;;;10496871;28;20086;-76
2022/11/21 03:01:38;;;;;;;3.38;0.88;;;;;;;;;;10522254;28;20544;-76
2022/11/21 03:06:51;;;;;;;1.23;0.80;;;;;;;;;;10520809;28;20032;-76
2022/11/21 03:12:04;;;;;;;0.68;0.55;;;;;;;;;;10513412;28;20806;-76
2022/11/21 03:28:10;;;;;;;0.47;0.40;;;;;;;;;;10508902;28;20040;-77
2022/11/21 03:33:52;;;;;;;0.65;0.43;;;;;;;;;;10519334;28;20040;-74
2022/11/21 03:38:56;;;;;;;2.35;0.28;;;;;;;;;;10501419;28;20447;-74
2022/11/21 03:44:02;;;;;;;1.77;0.82;;;;;;;;;;10518124;28;20457;-74
2022/11/21 03:49:10;;;;;;;1.92;0.60;;;;;;;;;;10514634;28;20068;-76
2022/11/21 03:54:18;;;;;;;1.33;0.60;;;;;;;;;;10501889;28;20516;-75
2022/11/21 03:59:26;;;;;;;0.75;0.38;;;;;;;;;;10517718;28;20040;-75
2022/11/21 04:04:47;;;;;;;2.90;0.73;;;;;;;;;;10513900;28;20044;-74
2022/11/21 04:09:55;;;;;;;1.08;0.50;;;;;;;;;;10519392;28;20373;-76
2022/11/21 04:15:13;;;;;;;2.70;0.55;;;;;;;;;;10539548;27;20040;-75
2022/11/21 04:20:32;;;;;;;1.08;0.68;;;;;;;;;;10521051;28;20040;-76
2022/11/21 04:25:39;;;;;;;0.47;0.47;;;;;;;;;;10525999;28;20535;-77
2022/11/21 04:30:47;;;;;;;1.67;0.60;;;;;;;;;;10524389;28;20107;-77
2022/11/21 04:35:53;;;;;;;1.77;0.93;;;;;;;;;;10530524;28;20457;-77
2022/11/21 04:41:01;;;;;;;3.95;1.15;;;;;;;;;;10526559;28;20036;-74
2022/11/21 04:46:14;;;;;;;1.02;0.50;;;;;;;;;;10517518;28;20036;-74
2022/11/21 04:51:37;;;;;;;1.15;0.35;;;;;;;;;;10462226;28;20118;-75
2022/11/21 04:56:46;;;;;;;2.30;0.95;;;;;;;;;;10478891;28;20560;-74
2022/11/21 05:02:04;;;;;;;0.70;0.40;;;;;;;;;;10492684;28;20135;-75
2022/11/21 05:07:15;;;;;;;2.08;0.65;;;;;;;;;;10477902;28;20032;-74
2022/11/21 05:18:00;;;;;;;0.28;0.20;;;;;;;;;;10481582;28;20041;-76
2022/11/21 05:23:13;;;;;;;0.85;0.38;;;;;;;;;;10469480;28;20054;-73
2022/11/21 05:28:25;;;;;;;1.48;0.20;;;;;;;;;;10454757;28;20059;-76
2022/11/21 05:33:47;;;;;;;0.90;0.30;;;;;;;;;;10462185;28;20047;-76
2022/11/21 05:39:14;;;;;;;0.38;0.30;;;;;;;;;;10487051;28;20045;-74
2022/11/21 05:44:22;;;;;;;0.70;0.52;;;;;;;;;;10469869;28;20156;-76
2022/11/21 05:49:29;;;;;;;1.38;0.60;;;;;;;;;;10515374;28;20056;-74
2022/11/21 05:54:49;;;;;;;1.17;0.47;;;;;;;;;;10530957;28;20121;-75
2022/11/21 05:59:55;;;;;;;0.43;0.40;;;;;;;;;;10512899;28;20050;-74
2022/11/21 06:05:02;;;;;;;1.25;0.68;;;;;;;;;;10518982;28;20036;-77
2022/11/21 06:10:16;;;;;;;0.28;0.28;;;;;;;;;;10524064;28;20067;-76
2022/11/21 06:15:21;;;;;;;3.05;1.15;;;;;;;;;;10521482;28;20042;-75
2022/11/21 06:20:28;;;;;;;2.97;0.70;;;;;;;;;;10508897;28;20170;-75
2022/11/21 06:25:37;;;;;;;1.00;0.55;;;;;;;;;;10519496;28;20503;-77
2022/11/21 06:30:50;;;;;;;1.48;1.02;;;;;;;;;;10529684;28;20047;-76
2022/11/21 06:36:04;;;;;;;1.63;0.80;;;;;;;;;;10529527;28;20086;-75
2022/11/21 06:41:21;;;;;;;2.38;0.63;;;;;;;;;;10525742;28;20075;-77
2022/11/21 06:46:27;;;;;;;0.40;0.40;;;;;;;;;;10495785;28;20074;-76
2022/11/21 06:51:39;;;;;;;1.25;0.40;;;;;;;;;;10505871;28;20044;-75
2022/11/21 06:56:54;;;;;;;1.73;0.80;;;;;;;;;;10520237;28;20055;-76
2022/11/21 07:02:18;;;;;;;1.50;0.65;;;;;;;;;;10510605;28;20044;-76
2022/11/21 07:07:30;;;;;;;0.22;0.17;;;;;;;;;;10506863;28;20048;-76
2022/11/21 07:18:27;;;;;;;0.43;0.38;;;;;;;;;;10453226;27;21016;-75
2022/11/21 07:23:31;;;;;;;1.17;0.50;;;;;;;;;;10466902;28;20036;-75
2022/11/21 07:28:33;;;;;;;0.73;0.40;;;;;;;;;;10472802;28;20472;-76
2022/11/21 07:33:37;;;;;;;2.42;0.50;;;;;;;;;;10466173;28;20419;-76
2022/11/21 07:38:41;;;;;;;0.80;0.47;;;;;;;;;;10475056;28;20127;-75
2022/11/21 07:43:44;;;;;;;0.52;0.43;;;;;;;;;;10462918;28;20041;-76
2022/11/21 07:48:48;;;;;;;2.33;0.43;;;;;;;;;;10465314;28;22248;-77
2022/11/21 07:53:50;;;;;;;1.13;0.77;;;;;;;;;;10465413;28;20045;-76
2022/11/21 07:58:54;;;;;;;6.57;1.08;;;;;;;;;;10476381;28;20071;-76
2022/11/21 08:03:57;;;;;;;1.60;0.77;;;;;;;;;;10457652;28;20124;-76
2022/11/21 08:09:00;;;;;;;1.65;0.50;;;;;;;;;;10451755;28;20457;-76
2022/11/21 08:14:03;;;;;;;0.60;0.50;;;;;;;;;;10458871;28;20135;-75
2022/11/21 08:19:07;;;;;;;0.77;0.50;;;;;;;;;;10463286;28;20052;-74
2022/11/21 08:24:13;;;;;;;1.55;0.70;;;;;;;;;;10460197;28;20181;-77
2022/11/21 08:29:16;;;;;;;0.50;0.30;;;;;;;;;;10439545;28;20129;-75
2022/11/21 08:34:20;;;;;;;1.30;1.20;;;;;;;;;;10438339;28;20088;-74
2022/11/21 08:39:24;;;;;;;1.08;0.60;;;;;;;;;;10436379;28;20048;-75
2022/11/21 08:44:27;;;;;;;1.02;0.63;;;;;;;;;;10442906;28;20037;-75
2022/11/21 08:49:32;;;;;;;1.23;0.50;;;;;;;;;;10438763;28;20106;-75
2022/11/21 08:54:35;;;;;;;1.80;0.73;;;;;;;;;;10441086;28;20446;-74
2022/11/21 08:59:38;;;;;;;1.20;0.60;;;;;;;;;;10437599;28;20072;-76
2022/11/21 09:04:41;;;;;;;0.90;0.80;;;;;;;;;;10437082;28;20211;-76
2022/11/21 09:09:44;;;;;;;1.52;0.80;;;;;;;;;;10444847;28;20071;-77
2022/11/21 09:20:09;;;;;;;1.95;0.93;;;;;;;;;;10443768;28;20072;-77
2022/11/21 09:25:12;;;;;;;0.90;0.40;;;;;;;;;;10435085;28;20030;-77
2022/11/21 09:30:15;;;;;;;1.83;0.40;;;;;;;;;;10436284;28;20041;-77
2022/11/21 09:35:20;;;;;;;2.15;1.00;;;;;;;;;;10442249;28;20166;-76
2022/11/21 09:40:23;;;;;;;1.63;1.10;;;;;;;;;;10432871;28;20053;-75
2022/11/21 09:45:33;;;;;;;1.83;1.30;;;;;;;;;;10430053;28;20057;-76
2022/11/21 09:50:39;;;;;;;2.78;1.35;;;;;;;;;;10437351;28;20041;-76
2022/11/21 09:55:44;;;;;;;1.98;1.00;;;;;;;;;;10439659;28;20037;-76
2022/11/21 10:00:46;;;;;;;1.98;0.90;;;;;;;;;;10432286;28;20037;-76
2022/11/21 10:05:52;;;;;;;1.38;0.90;;;;;;;;;;10431390;28;20172;-76
2022/11/21 10:10:56;;;;;;;3.38;1.10;;;;;;;;;;10431720;28;20486;-76
2022/11/21 10:16:02;;;;;;;3.35;0.70;;;;;;;;;;10426861;28;20041;-76
2022/11/21 10:21:11;;;;;;;1.50;0.50;;;;;;;;;;10439487;28;20067;-76
2022/11/21 10:26:15;;;;;;;1.20;0.50;;;;;;;;;;10436592;28;20525;-76
2022/11/21 10:31:19;;;;;;;0.70;0.55;;;;;;;;;;10445293;28;20295;-75
2022/11/21 10:36:26;;;;;;;1.55;0.55;;;;;;;;;;10435282;28;20044;-74
2022/11/21 10:41:36;;;;;;;2.03;1.50;;;;;;;;;;10432942;28;20453;-75
2022/11/21 10:46:38;;;;;;;2.20;1.60;;;;;;;;;;10433304;28;20670;-76
2022/11/21 10:51:45;;;;;;;1.77;0.80;;;;;;;;;;10472489;28;20052;-75
2022/11/21 10:56:48;;;;;;;2.25;1.40;;;;;;;;;;10466540;28;20094;-76
2022/11/21 11:01:55;;;;;;;2.27;1.43;;;;;;;;;;10482817;28;20106;-76
2022/11/21 11:07:13;;;;;;;4.07;1.40;;;;;;;;;;10480821;28;20055;-76
2022/11/21 11:12:24;;;;;;;2.75;1.10;;;;;;;;;;10469327;28;20052;-75
2022/11/21 11:17:28;;;;;;;1.17;0.70;;;;;;;;;;10471501;28;20045;-76
2022/11/21 11:22:32;;;;;;;1.38;0.70;;;;;;;;;;10477073;28;20037;-74
2022/11/21 11:27:37;;;;;;;1.75;0.70;;;;;;;;;;10469339;28;20583;-74
2022/11/21 11:32:40;;;;;;;1.38;0.80;;;;;;;;;;10472895;28;20067;-74
2022/11/21 11:37:49;;;;;;;2.22;0.80;;;;;;;;;;10483521;28;20048;-75
2022/11/21 11:48:27;;;;;;;4.50;0.60;;;;;;;;;;10475142;28;20043;-73
2022/11/21 11:53:34;;;;;;;2.05;0.88;;;;;;;;;;10473919;28;20037;-74
2022/11/21 11:58:38;;;;;;;0.98;0.50;;;;;;;;;;10471454;28;20040;-76
2022/11/21 12:03:43;;;;;;;0.40;0.38;;;;;;;;;;10475308;28;20056;-75
2022/11/21 12:08:51;;;;;;;1.40;0.77;;;;;;;;;;10472623;28;20486;-76
2022/11/21 12:13:55;;;;;;;6.78;1.13;;;;;;;;;;10480502;28;20052;-74
2022/11/21 12:18:57;;;;;;;;;;;;;;;;;;10486253;28;20036;-76
2022/11/21 12:24:03;;;;;;;1.52;0.60;;;;;;;;;;10483608;28;20053;-76
2022/11/21 12:29:11;;;;;;;0.88;0.55;;;;;;;;;;10483511;28;20040;-76
2022/11/21 12:34:21;;;;;;;2.60;0.98;;;;;;;;;;10474775;28;20040;-76
2022/11/21 12:39:37;;;;;;;4.78;1.13;;;;;;;;;;10486244;28;20041;-75
2022/11/21 12:44:48;;;;;;;1.73;0.45;;;;;;;;;;10477524;28;20036;-75
2022/11/21 12:55:29;;;;;;;3.10;0.90;;;;;;;;;;10474439;28;20406;-76
2022/11/21 13:00:42;;;;;;;4.30;1.23;;;;;;;;;;10482146;28;20388;-76
2022/11/21 13:05:46;;;;;;;5.15;1.10;;;;;;;;;;10476866;28;20482;-76
2022/11/21 13:11:57;;;;;;;3.42;1.40;;;;;;;;;;10480723;28;20068;-76
2022/11/21 13:16:35;;;;;;;1.92;1.40;;;;;;;;;;10478873;28;20036;-75
2022/11/21 13:21:41;;;;;;;4.07;1.90;;;;;;;;;;10472157;28;20036;-75
2022/11/21 13:26:50;;;;;;;1.58;0.82;;;;;;;;;;10477510;28;20041;-75
2022/11/21 13:31:52;;;;;;;4.05;0.80;;;;;;;;;;10481369;28;20044;-75
2022/11/21 13:36:55;;;;;;;1.70;1.00;;;;;;;;;;10472730;28;20048;-74
2022/11/21 13:47:37;;;;;;;4.32;0.90;;;;;;;;;;10478858;28;20604;-75
2022/11/21 13:52:49;;;;;;;2.53;0.80;;;;;;;;;;10483677;28;20123;-75
2022/11/21 13:58:00;;;;;;;4.07;1.20;;;;;;;;;;10479565;28;20448;-74
2022/11/21 14:03:18;;;;;;;2.22;1.00;;;;;;;;;;10475348;28;20041;-75
2022/11/21 14:08:21;;;;;;;2.97;1.20;;;;;;;;;;10479534;28;20383;-74
2022/11/21 14:13:24;;;;;;;;;;;;;;;;;;10474166;28;20243;-76
2022/11/21 14:18:29;;;;;;;5.15;0.50;;;;;;;;;;10476583;28;20361;-75
2022/11/21 14:23:34;;;;;;;2.47;1.23;;;;;;;;;;10471534;28;20097;-75
2022/11/21 14:28:36;;;;;;;;;;;;;;;;;;10483834;28;20473;-76
2022/11/21 14:33:41;;;;;;;0.30;0.30;;;;;;;;;;10474931;28;19928;-74
2022/11/21 14:38:44;;;;;;;2.75;0.82;;;;;;;;;;10478544;28;20040;-76
2022/11/21 14:44:05;;;;;;;0.80;0.50;;;;;;;;;;10477703;28;20264;-77
2022/11/21 14:49:23;;;;;;;7.22;0.68;;;;;;;;;;10469263;28;20060;-75
2022/11/21 14:54:28;;;;;;;0.77;0.40;;;;;;;;;;10466088;28;20051;-74
2022/11/21 14:59:33;;;;;;;1.45;0.52;;;;;;;;;;10469024;28;20040;-74
2022/11/21 15:04:36;;;;;;;2.33;1.17;;;;;;;;;;10470534;28;20045;-75
2022/11/21 15:09:40;;;;;;;4.95;2.72;;;;;;;;;;10472606;28;20318;-74
2022/11/21 15:15:06;;;;;;;35.88;18.20;;;;;;;;;;10456411;28;20139;-75
2022/11/21 15:20:18;;;;;;;5.75;2.42;;;;;;;;;;10476037;28;20044;-74
2022/11/21 15:25:23;;;;;;;17.33;4.00;;;;;;;;;;10477952;28;20390;-73
2022/11/21 15:30:27;;;;;;;5.68;1.95;;;;;;;;;;10479249;28;20541;-74
2022/11/21 15:35:39;;;;;;;5.00;1.38;;;;;;;;;;10475177;28;20048;-75
2022/11/21 15:40:56;;;;;;;2.90;1.05;;;;;;;;;;10482434;28;20320;-74
2022/11/21 15:46:00;;;;;;;6.75;2.40;;;;;;;;;;10484538;28;20095;-74
2022/11/21 15:51:02;;;;;;;2.50;0.85;;;;;;;;;;10483985;28;20283;-75
2022/11/21 15:56:09;;;;;;;8.60;3.35;;;;;;;;;;10492055;28;20406;-76
2022/11/21 16:01:13;;;;;;;18.33;5.45;;;;;;;;;;10486719;28;20048;-75
2022/11/21 16:06:16;;;;;;;11.55;4.05;;;;;;;;;;10482274;28;20383;-75
2022/11/21 16:11:21;;;;;;;14.23;4.30;;;;;;;;;;10482912;28;20106;-74
2022/11/21 16:16:29;;;;;;;13.25;3.90;;;;;;;;;;10483603;28;20103;-74
2022/11/21 16:21:31;;;;;;;12.25;4.85;;;;;;;;;;10481364;28;20040;-75
2022/11/21 16:26:35;;;;;;;7.22;2.60;;;;;;;;;;10478292;28;20036;-75
2022/11/21 16:31:38;;;;;;;12.40;2.85;;;;;;;;;;10484502;28;20037;-74
2022/11/21 16:36:41;;;;;;;5.30;2.20;;;;;;;;;;10482577;28;20047;-74
2022/11/21 16:41:46;;;;;;;9.27;2.50;;;;;;;;;;10488078;28;20452;-74
2022/11/21 16:46:51;;;;;;;3.55;1.33;;;;;;;;;;10480242;28;20040;-75
2022/11/21 16:51:54;;;;;;;7.13;2.30;;;;;;;;;;10479076;28;20044;-75
2022/11/21 16:56:58;;;;;;;5.33;1.83;;;;;;;;;;10482169;28;21642;-76
2022/11/21 17:02:01;;;;;;;;;;;;;;;;;;10480857;28;20036;-75
2022/11/21 17:07:04;;;;;;;6.28;2.08;;;;;;;;;;10453868;28;20360;-75
2022/11/21 17:12:08;;;;;;;6.13;1.52;;;;;;;;;;10481811;28;20087;-76
2022/11/21 17:17:11;;;;;;;2.70;1.45;;;;;;;;;;10485177;28;20041;-76
2022/11/21 17:22:13;;;;;;;4.68;1.63;;;;;;;;;;10483550;28;20044;-76
2022/11/21 17:27:23;;;;;;;7.22;1.17;;;;;;;;;;10482265;28;20135;-75
2022/11/21 17:32:26;;;;;;;;;;;;;;;;;;10476965;28;20049;-76
2022/11/21 17:37:30;;;;;;;;;;;;;;;;;;10488692;28;19949;-77
2022/11/21 17:42:34;;;;;;;2.15;0.95;;;;;;;;;;10489078;28;20330;-76
2022/11/21 17:47:37;;;;;;;6.07;2.35;;;;;;;;;;10495533;28;20385;-75
2022/11/21 17:52:39;;;;;;;4.43;1.30;;;;;;;;;;10477169;28;20464;-75
2022/11/21 17:57:43;;;;;;;5.25;2.03;;;;;;;;;;10495483;28;20389;-75
2022/11/21 18:02:46;;;;;;;2.03;1.00;;;;;;;;;;10485895;28;20069;-77
2022/11/21 18:07:49;;;;;;;2.88;1.52;;;;;;;;;;10472268;28;20039;-74
2022/11/21 18:12:53;;;;;;;2.70;1.23;;;;;;;;;;10486227;28;20071;-76
2022/11/21 18:17:56;;;;;;;4.45;1.95;;;;;;;;;;10467736;28;20442;-74
2022/11/21 18:22:59;;;;;;;3.58;1.63;;;;;;;;;;10492704;28;20036;-75
2022/11/21 18:28:03;;;;;;;7.03;1.45;;;;;;;;;;10470872;28;20417;-75
2022/11/21 18:33:06;;;;;;;5.55;2.28;;;;;;;;;;10485862;28;20397;-76
2022/11/21 18:38:09;;;;;;;4.03;1.90;;;;;;;;;;10469355;28;20143;-75
2022/11/21 18:43:33;;;;;;;6.85;2.42;;;;;;;;;;10487206;28;20044;-75
2022/11/21 18:48:36;;;;;;;1.67;0.97;;;;;;;;;;10491028;28;20094;-75
2022/11/21 18:53:59;;;;;;;4.37;1.73;;;;;;;;;;10488833;28;20098;-75
2022/11/21 18:59:04;;;;;;;8.27;2.37;;;;;;;;;;10480731;28;20416;-76
2022/11/21 19:04:08;;;;;;;4.45;1.27;;;;;;;;;;10479032;28;20051;-76
2022/11/21 19:09:10;;;;;;;3.47;1.70;;;;;;;;;;10469111;28;20071;-77
2022/11/21 19:14:14;;;;;;;7.27;2.03;;;;;;;;;;10484819;28;20403;-75
2022/11/21 19:19:17;;;;;;;2.30;1.38;;;;;;;;;;10487924;28;20040;-75
2022/11/21 19:24:37;;;;;;;1.67;1.08;;;;;;;;;;10475523;28;20382;-77
2022/11/21 19:29:41;;;;;;;1.60;0.95;;;;;;;;;;10477717;28;20037;-77
2022/11/21 19:34:44;;;;;;;1.75;0.65;;;;;;;;;;10473746;28;20048;-77
2022/11/21 19:39:47;;;;;;;3.40;1.70;;;;;;;;;;10491268;28;20037;-75
2022/11/21 19:44:50;;;;;;;1.70;1.15;;;;;;;;;;10487163;28;20064;-77
2022/11/21 19:49:54;;;;;;;8.35;2.45;;;;;;;;;;10480140;28;20044;-76
2022/11/21 19:54:57;;;;;;;4.75;2.05;;;;;;;;;;10484554;28;20119;-75
2022/11/21 20:00:01;;;;;;;4.32;2.50;;;;;;;;;;10482428;28;20047;-76
2022/11/21 20:05:04;;;;;;;9.18;2.35;;;;;;;;;;10476871;28;20056;-76
2022/11/21 20:10:07;;;;;;;9.00;3.13;;;;;;;;;;10485857;28;20493;-77
2022/11/21 20:15:12;;;;;;;3.90;1.98;;;;;;;;;;10484677;28;20123;-74
2022/11/21 20:20:15;;;;;;;7.05;2.95;;;;;;;;;;10484672;28;20407;-76
2022/11/21 20:25:17;;;;;;;29.77;6.27;;;;;;;;;;10494193;28;20059;-76
2022/11/21 20:30:23;;;;;;;29.60;6.45;;;;;;;;;;10488722;28;20033;-74
2022/11/21 20:35:29;;;;;;;6.53;1.55;;;;;;;;;;10493991;28;20072;-76
2022/11/21 20:40:32;;;;;;;5.43;2.25;;;;;;;;;;10499164;28;20032;-75
2022/11/21 20:45:36;;;;;;;5.17;2.53;;;;;;;;;;10491034;28;20036;-74
2022/11/21 20:50:59;;;;;;;4.80;2.40;;;;;;;;;;10495060;28;20043;-76
2022/11/21 20:56:22;;;;;;;3.47;1.97;;;;;;;;;;10497980;28;20095;-75
2022/11/21 21:01:26;;;;;;;2.73;1.50;;;;;;;;;;10495759;28;20090;-76
2022/11/21 21:06:29;;;;;;;3.13;1.20;;;;;;;;;;10494113;28;20044;-77
2022/11/21 21:11:31;;;;;;;3.13;1.57;;;;;;;;;;10483772;28;20063;-75
2022/11/21 21:16:56;;;;;;;1.40;0.97;;;;;;;;;;10490740;28;20041;-74
2022/11/21 21:21:59;;;;;;;2.67;1.45;;;;;;;;;;10488174;28;20051;-75
2022/11/21 21:27:01;;;;;;;3.93;1.80;;;;;;;;;;10489079;28;20036;-75
2022/11/21 21:32:05;;;;;;;10.87;5.00;;;;;;;;;;10478943;28;20040;-74
2022/11/21 21:37:08;;;;;;;3.78;1.63;;;;;;;;;;10483266;28;20114;-75
2022/11/21 21:42:10;;;;;;;3.40;1.13;;;;;;;;;;10492563;28;20043;-75
2022/11/21 21:47:16;;;;;;;3.50;0.80;;;;;;;;;;10483540;28;20066;-75
2022/11/21 21:52:18;;;;;;;3.33;1.77;;;;;;;;;;10483109;28;20029;-75
2022/11/21 21:57:21;;;;;;;3.92;1.75;;;;;;;;;;10463956;28;20481;-75
2022/11/21 22:02:25;;;;;;;3.43;1.50;;;;;;;;;;10476199;28;20532;-76
2022/11/21 22:07:27;;;;;;;3.75;1.33;;;;;;;;;;10480293;28;20045;-75
2022/11/21 22:12:30;;;;;;;4.45;1.30;;;;;;;;;;10478286;28;20465;-74
2022/11/21 22:17:34;;;;;;;1.35;1.15;;;;;;;;;;10472449;28;20051;-75
2022/11/21 22:22:37;;;;;;;7.65;1.67;;;;;;;;;;10476715;28;20121;-75
2022/11/21 22:27:39;;;;;;;5.05;2.53;;;;;;;;;;10471306;28;20244;-75
2022/11/21 22:32:43;;;;;;;10.57;3.30;;;;;;;;;;10475510;28;20295;-74
2022/11/21 22:37:46;;;;;;;;;;;;;;;;;;10462262;28;20369;-75
2022/11/21 22:42:49;;;;;;;2.03;1.37;;;;;;;;;;10476810;28;20008;-75
2022/11/21 22:47:53;;;;;;;8.00;2.47;;;;;;;;;;10475843;28;20494;-76
2022/11/21 22:52:55;;;;;;;12.90;2.47;;;;;;;;;;10483215;28;20525;-76
2022/11/21 22:57:58;;;;;;;4.67;1.90;;;;;;;;;;10470187;28;20075;-75
2022/11/21 23:03:02;;;;;;;4.47;1.90;;;;;;;;;;10486032;28;20045;-75
2022/11/21 23:08:04;;;;;;;5.75;2.20;;;;;;;;;;10478359;28;20043;-76
2022/11/21 23:13:07;;;;;;;10.48;3.17;;;;;;;;;;10482117;28;20037;-75
2022/11/21 23:18:11;;;;;;;3.80;1.80;;;;;;;;;;10480603;28;20051;-75
2022/11/21 23:23:13;;;;;;;3.72;1.70;;;;;;;;;;10482242;28;20472;-75
2022/11/21 23:28:16;;;;;;;11.23;2.53;;;;;;;;;;10474580;28;20055;-75
2022/11/21 23:33:20;;;;;;;2.90;1.83;;;;;;;;;;10482664;28;20598;-75
2022/11/21 23:38:22;;;;;;;6.70;2.70;;;;;;;;;;10476533;28;20037;-75
2022/11/21 23:43:26;;;;;;;4.93;2.00;;;;;;;;;;10474568;28;20112;-75
2022/11/21 23:48:30;;;;;;;14.53;3.70;;;;;;;;;;10472060;28;20056;-76
2022/11/21 23:53:32;;;;;;;4.03;2.15;;;;;;;;;;10475348;28;20057;-75
2022/11/21 23:58:35;;;;;;;4.23;2.20;;;;;;;;;;10481622;28;20601;-74
